Logo AVAMET
Benvolgut visitant, si us plau, ingressa Recuperar contrasenya
AVAMET paisatges

Almenara

Dades diàries. Acumulats / Últims 30 dies disponibles

Data Temperatura (°C) Humitat rel. (%) Pressió rel. (hPa) Vent (km/h) Precipitació
Mínima Mitjana Màxima Amplitud
tèrmica
Mínima Mitjana Màxima Mínima Mitjana Màxima Predom. Mitjana Ràfega
màxima
Total
(mm)
Índex-n
Mínima Mitjana Màxima Mínima Mitjana Màxima n
0 a 1
P0 max
mm 5'
Dades mensuals acumulades fins l'últim dia disponible
10/2020 11,1 14,8 19,3 19,3 19,3 23,7 28,5 17,4 28 59 91 991 1.015 1.024   5,4 53,1 2,4
Dades anuals acumulades fins l'últim dia disponible
2020 3,3 15,8 25,8 19,7 10,3 23,4 33,2 29,9 18 70 96 991 1.017 1.034   3,9 85,3 428,6
Últims 30 dies disponibles
20-10-2020 17,3     18,8     21,4 4,1 80 84 91 1.010 1.016 1.019 O 3,0 19,3 0,0
19-10-2020 13,3     17,5     21,9 8,6 60 77 86 1.019 1.021 1.022 SO 4,4 19,3 0,0
18-10-2020 11,1     18,8     21,3 10,2 47 68 84 1.020 1.021 1.022 SSO 4,5 19,3 0,0
17-10-2020 11,4     15,1     20,5 9,1 51 64 73 1.016 1.017 1.018 SO 5,1 24,1 0,0
16-10-2020 11,6     15,5     19,3 7,7 32 48 67 1.016 1.017 1.018 SO 5,4 29,0 0,0
15-10-2020 12,7     17,3     21,9 9,2 29 43 53 1.013 1.014 1.017 SO 6,9 29,0 0,0
14-10-2020 16,2     18,5     21,3 5,1 39 60 78 1.008 1.010 1.013 SSO 4,3 24,1 0,0
13-10-2020 14,8     21,2     28,3 13,5 30 51 71 1.010 1.013 1.018 OSO 7,2 33,8 0,0
12-10-2020 15,1     18,5     22,0 6,9 35 46 63 1.018 1.020 1.022 SSO 6,4 32,2 0,0
11-10-2020 16,2     19,4     21,8 5,6 32 46 84 1.019 1.021 1.022 SSO 5,9 33,8 0,0
10-10-2020 18,2     20,9     24,0 5,8 59 80 88 1.020 1.021 1.023 SSO 3,7 19,3 0,0
09-10-2020 17,3     20,9     24,1 6,8 71 82 89 1.021 1.021 1.023 SSO 3,7 22,5 0,0
08-10-2020 17,6     21,4     25,1 7,5 58 74 85 1.022 1.023 1.024 SO 4,8 30,6 0,0
07-10-2020 19,3     26,0     28,5 9,2 37 47 58 1.019 1.020 1.023 SE 4,8 20,9 0,0
06-10-2020 13,9     18,6     27,0 13,1 34 52 61 1.018 1.020 1.021 WNW 4,0 24,1 0,0
05-10-2020 15,4     19,2     23,2 7,8 33 48 61 1.011 1.015 1.020 W 5,0 32,2 0,0
04-10-2020 12,5     19,1     24,9 12,4 32 45 61 1.005 1.008 1.011 W 7,7 45,1 0,0
03-10-2020 11,7     18,3     25,1 13,4 28 44 69 1.000 1.004 1.009 W 7,7 38,6 0,0
02-10-2020 13,6     19,7     24,5 10,9 49 57 80 991 997 1.004 WSW 9,5 53,1 2,4 0,32 0,80
01-10-2020 16,1     21,7     26,9 10,8 49 70 90 1.004 1.008 1.013 WNW 4,5 30,6 0,0
30-09-2020 15,8     20,1     23,8 8,0 67 77 85 1.013 1.015 1.018 SO 4,0 20,9 0,0
29-09-2020 15,2     19,9     24,0 8,8 52 63 79 1.017 1.018 1.020 W 4,3 22,5 0,0
28-09-2020 15,7     19,8     23,4 7,7 36 47 63 1.014 1.015 1.019 W 4,7 29,0 0,0
27-09-2020 18,7     21,4     24,7 6,0 19 43 54 1.007 1.010 1.014 SE 7,1 40,2 0,0
26-09-2020 16,7     21,4     27,3 10,6 28 40 53 1.009 1.015 1.020 W 9,5 37,0 0,0
25-09-2020 19,2     23,0     26,0 6,8 22 38 59 1.011 1.014 1.020 W 10,6 45,1 0,0
24-09-2020 20,9     25,1     30,7 9,8 37 58 80 1.009 1.011 1.013 WSW 6,4 45,1 0,0
23-09-2020 20,1     24,4     31,1 11,0 39 67 84 1.009 1.011 1.012 WSW 3,9 32,2 0,0
22-09-2020 19,1     23,2     27,2 8,1 54 74 84 1.011 1.013 1.015 E 5,1 33,8 0,0
21-09-2020 19,9     23,8     27,3 7,4 52 69 81 1.014 1.015 1.016 E 4,5 22,5 0,0
Últims 13 mesos disponibles
09/2020 15,2 19,3 22,2 23,4 23,4 27,3 31,1 15,9 38 65 82 1.010 1.017 1.023 W 5,1 45,1 21,6
08/2020 17,7 22,9 25,8 26,6 25,2 29,7 31,4 13,7 48 71 85 1.004 1.013 1.018 E 5,2 38,6 4,2
07/2020 20,0 22,6 24,8 26,2 26,8 29,2 32,9 12,9 50 72 80 1.011 1.016 1.020 E 5,5 53,1 4,8
06/2020 16,0 19,0 21,9 22,9 20,8 26,2 30,9 14,9 35 69 82 1.004 1.014 1.020 ESE 3,8 45,1 12,6
05/2020 13,2 17,1 19,8 21,2 19,2 25,1 33,2 20,0 39 68 82 1.004 1.016 1.027 ESE 1,1 43,5 15,8
04/2020 8,9 13,0 18,2 16,2 15,3 19,7 27,6 18,7 42 77 90 1.005 1.016 1.026 ESE 2,2 45,1 66,2
03/2020 6,0 10,9 15,7 14,4 11,2 17,8 26,9 20,9 41 70 93 1.005 1.017 1.026 ESE 5,2 83,7 124,2
02/2020 6,4 10,3 14,4 14,5 14,4 19,5 26,3 19,9 41 72 89 1.012 1.025 1.032 N 2,6 45,1 3,0
01/2020 3,3 7,5 13,3 11,4 10,3 16,0 23,1 19,8 59 75 91 1.016 1.024 1.032 WNW 2,9 85,3 173,8
12/2019 6,2 10,9 17,1 14,2 13,4 18,2 25,3 19,1 48 70 90 1.000 1.018 1.032 NW 4,0 61,2 103,0
11/2019 7,2 12,2 20,0 16,1 15,7 20,4 29,4 22,2 40 53 76 997 1.009 1.017 W 5,7 49,9 3,0
10/2019 11,1 16,5 20,9 20,4 17,2 24,7 29,3 18,2 46 71 84 1.006 1.015 1.021 ESE 3,4 37,0 22,6
09/2019 15,5 20,4 23,3 23,9 21,7 27,2 32,2 16,7 52 72 84 1.009 1.017 1.024 ESE 4,7 62,8 127,0
Tots els anys disponibles
2019 4,0 14,7 26,5 18,6 11,5 22,7 37,8 33,8 28 65 91 993 1.016 1.034 ESE 4,7 72,4 395,2
2018 2,3 14,6 26,7 18,5 9,1 22,5 35,1 32,8 43 73 89 1.000 1.018 1.030 WNW 6,1 78,9 683,0
2017 1,2 14,2 27,1 18,3 9,7 22,4 34,3 33,1 6,4 78,7 331,4
2016 3,3 14,7 25,7 18,5 12,0 22,2 33,7 30,4 6,4 86,9 422,0
2015 2,4 14,5 26,4 18,5 9,0 22,5 41,9 39,5 6,3 82,1 593,6
2014 1,4 12,7 19,6 16,8 12,8 21,5 34,3 32,9 6,0 70,8 270,2
Temperatura (°C)
Humitat relativa (%)
Velocitat del vent i ràfega màxima (km/h)
Direcció del vent (°)
Pressió (hPa)
Precipitació (mm)
Nota sobre les dades: s'avisa a l'usuari de la provisionalitat i no oficialitat d'aquestes dades
Logo AVAMET blanc
Web allotjada a Sollutia
Llicència de Creative CommonsLa web d'AVAMET i els seus continguts estan subjectes a una llicència de
Reconeixement - No Comercial - Compartir igual
Últimes estacions: Sueca - Mareny de Barraquetes (Inforatge), La Vilavella - Centre (Ajuntament Soci), Alfondeguilla (Soci), Santa Magdalena de Polpís (Soci),  Benafigos (Aj. Soci), Carlet - Ajuntament (Inforatge), Montroi (Inforatge), Bronchales (Limítrofe-Terol/Aj. Soci), Sueca - Muntanyeta dels Sants (Inforatge), Vilamarxant - Ajuntament (Aj. Soci/Inforatge) - - -